Time;durP1;ratioP1;P1;durP2;ratioP2;P2;SDS_P1;SDS_P2;PMS_P1;PMS_P2;Temp;Humidity;BMP_temperature;BMP_pressure;BME280_temperature;BME280_humidity;BME280_pressure;Samples;Min_cycle;Max_cycle;Signal;HPM_P1;HPM_P2
2021/10/23 00:00:10;;;;;;;3.40;1.38;;;7.90;99.90;;;;;;5053761;28;20021;-66
2021/10/23 00:02:35;;;;;;;5.85;1.40;;;7.90;99.90;;;;;;5053252;28;20680;-67
2021/10/23 00:05:01;;;;;;;4.78;1.60;;;7.80;99.90;;;;;;5052938;28;20052;-66
2021/10/23 00:07:27;;;;;;;5.55;1.83;;;7.80;99.90;;;;;;5051926;28;20086;-66
2021/10/23 00:09:53;;;;;;;8.80;2.00;;;7.90;99.90;;;;;;5052978;28;20033;-66
2021/10/23 00:12:18;;;;;;;6.95;1.83;;;7.80;99.90;;;;;;5052031;28;20025;-67
2021/10/23 00:14:44;;;;;;;5.20;1.70;;;7.80;99.90;;;;;;5052728;28;20417;-67
2021/10/23 00:17:10;;;;;;;9.23;1.80;;;7.90;99.90;;;;;;5053263;28;20028;-67
2021/10/23 00:19:35;;;;;;;7.55;1.67;;;7.80;99.90;;;;;;5051885;28;20024;-67
2021/10/23 00:22:01;;;;;;;4.93;1.77;;;7.80;99.90;;;;;;5053104;28;20021;-67
2021/10/23 00:24:27;;;;;;;9.98;2.40;;;7.80;99.90;;;;;;5051561;28;20029;-67
2021/10/23 00:26:52;;;;;;;4.60;1.50;;;7.80;99.90;;;;;;5052582;28;20100;-67
2021/10/23 00:29:18;;;;;;;4.63;1.92;;;7.80;99.90;;;;;;5051339;28;20474;-67
2021/10/23 00:31:44;;;;;;;4.97;1.63;;;7.80;99.90;;;;;;5052657;28;20052;-67
2021/10/23 00:34:09;;;;;;;5.13;1.85;;;7.80;99.90;;;;;;5052861;28;20029;-67
2021/10/23 00:36:35;;;;;;;4.07;1.20;;;7.80;99.90;;;;;;5051408;28;20025;-68
2021/10/23 00:39:00;;;;;;;14.45;1.67;;;7.80;99.90;;;;;;5052597;28;20036;-67
2021/10/23 00:41:26;;;;;;;7.03;1.63;;;7.90;99.90;;;;;;5051679;28;20363;-67
2021/10/23 00:43:52;;;;;;;5.25;1.33;;;7.80;99.90;;;;;;5051782;28;20072;-67
2021/10/23 00:46:17;;;;;;;6.97;1.20;;;7.80;99.90;;;;;;5051414;28;20112;-67
2021/10/23 00:48:44;;;;;;;12.07;1.77;;;7.90;99.90;;;;;;5051425;28;20039;-67
2021/10/23 00:51:11;;;;;;;5.30;1.63;;;7.90;99.90;;;;;;5052027;28;20379;-67
2021/10/23 00:53:37;;;;;;;4.13;1.38;;;7.80;99.90;;;;;;5050893;28;20032;-67
2021/10/23 00:56:06;;;;;;;7.13;1.63;;;7.80;99.90;;;;;;5052056;28;20593;-66
2021/10/23 00:58:32;;;;;;;8.57;1.80;;;7.80;99.90;;;;;;5050566;28;20029;-67
2021/10/23 01:00:57;;;;;;;3.58;1.15;;;7.80;99.90;;;;;;5051638;28;20029;-67
2021/10/23 01:03:23;;;;;;;3.22;1.20;;;7.80;99.90;;;;;;5050910;28;20029;-67
2021/10/23 01:05:50;;;;;;;7.78;1.70;;;7.80;99.90;;;;;;5052089;28;20036;-66
2021/10/23 01:08:16;;;;;;;9.27;1.80;;;7.70;99.90;;;;;;5051152;28;20028;-66
2021/10/23 01:10:41;;;;;;;6.82;1.80;;;7.70;99.90;;;;;;5049570;28;20064;-67
2021/10/23 01:13:07;;;;;;;6.65;1.85;;;7.70;99.90;;;;;;5051339;28;20114;-66
2021/10/23 01:15:34;;;;;;;4.97;1.73;;;7.80;99.90;;;;;;5050725;28;20040;-67
2021/10/23 01:18:02;;;;;;;3.80;1.50;;;7.70;99.90;;;;;;5053006;28;20041;-66
2021/10/23 01:20:30;;;;;;;3.00;1.40;;;7.70;99.90;;;;;;5060915;28;20036;-67
2021/10/23 01:22:56;;;;;;;3.25;1.27;;;7.60;99.90;;;;;;5071513;28;20369;-67
2021/10/23 01:25:24;;;;;;;6.07;1.55;;;7.60;99.90;;;;;;5070756;28;20526;-67
2021/10/23 01:28:00;;;;;;;4.15;1.20;;;7.60;99.90;;;;;;5071620;28;20106;-66
2021/10/23 01:30:26;;;;;;;8.25;1.75;;;7.50;99.90;;;;;;5070402;28;20029;-66
2021/10/23 01:32:53;;;;;;;5.25;1.45;;;7.50;99.90;;;;;;5051450;28;20060;-66
2021/10/23 01:35:20;;;;;;;4.18;1.30;;;7.50;99.90;;;;;;5051063;28;20025;-67
2021/10/23 01:37:48;;;;;;;2.45;1.15;;;7.40;99.90;;;;;;5051236;28;20121;-67
2021/10/23 01:40:21;;;;;;;4.25;1.45;;;7.40;99.90;;;;;;5051733;28;20087;-67
2021/10/23 01:42:46;;;;;;;7.60;2.00;;;7.40;99.90;;;;;;5051598;28;20087;-67
2021/10/23 01:45:13;;;;;;;7.57;1.50;;;7.30;99.90;;;;;;5051671;28;20021;-66
2021/10/23 01:47:40;;;;;;;5.38;1.52;;;7.30;99.90;;;;;;5050731;28;20032;-67
2021/10/23 01:50:12;;;;;;;2.33;1.20;;;7.30;99.90;;;;;;5051337;28;20040;-67
2021/10/23 01:52:39;;;;;;;5.30;1.40;;;7.20;99.90;;;;;;5050961;28;20028;-67
2021/10/23 01:55:05;;;;;;;4.32;1.38;;;7.20;99.90;;;;;;5051527;28;20025;-66
2021/10/23 01:57:30;;;;;;;9.48;1.73;;;7.20;99.90;;;;;;5050243;28;20032;-66
2021/10/23 01:59:56;;;;;;;8.30;1.88;;;7.10;99.90;;;;;;5052797;28;20074;-66
2021/10/23 02:02:22;;;;;;;3.97;1.70;;;7.10;99.90;;;;;;5054320;28;20409;-66
2021/10/23 02:04:47;;;;;;;4.13;1.35;;;7.00;99.90;;;;;;5055144;28;20033;-66
2021/10/23 02:07:13;;;;;;;7.18;1.40;;;7.00;99.90;;;;;;5055437;28;20374;-66
2021/10/23 02:09:38;;;;;;;6.72;2.22;;;7.00;99.90;;;;;;5053572;28;20036;-66
2021/10/23 02:12:05;;;;;;;4.00;1.30;;;6.90;99.90;;;;;;5054407;28;20025;-66
2021/10/23 02:14:30;;;;;;;5.20;1.85;;;6.90;99.90;;;;;;5053533;28;20479;-66
2021/10/23 02:16:56;;;;;;;5.10;1.45;;;6.90;99.90;;;;;;5035525;28;20075;-66
2021/10/23 02:19:22;;;;;;;6.40;1.50;;;6.90;99.90;;;;;;5048525;28;20086;-66
2021/10/23 02:21:48;;;;;;;4.97;1.60;;;6.90;99.90;;;;;;5054623;28;20029;-66
2021/10/23 02:24:14;;;;;;;3.92;1.70;;;6.90;99.90;;;;;;5054578;28;20028;-66
2021/10/23 02:26:40;;;;;;;5.65;1.30;;;6.90;99.90;;;;;;5052989;28;20021;-66
2021/10/23 02:29:06;;;;;;;6.63;1.63;;;6.90;99.90;;;;;;5054664;28;20025;-66
2021/10/23 02:31:31;;;;;;;5.18;1.48;;;6.90;99.90;;;;;;5053658;28;20048;-66
2021/10/23 02:33:57;;;;;;;10.18;2.10;;;6.90;99.90;;;;;;5054733;28;20104;-66
2021/10/23 02:36:23;;;;;;;4.47;1.25;;;7.00;99.90;;;;;;5053609;28;20025;-66
2021/10/23 02:38:49;;;;;;;3.67;1.20;;;7.00;99.90;;;;;;5054479;28;20040;-66
2021/10/23 02:41:17;;;;;;;5.40;1.52;;;7.00;99.90;;;;;;5054472;28;20041;-66
2021/10/23 02:43:42;;;;;;;7.57;1.85;;;7.00;99.90;;;;;;5053057;28;20143;-66
2021/10/23 02:46:08;;;;;;;9.93;1.90;;;7.00;99.90;;;;;;5054215;28;20423;-66
2021/10/23 02:48:34;;;;;;;5.88;1.55;;;7.00;99.90;;;;;;5053116;28;20036;-66
2021/10/23 02:50:59;;;;;;;7.55;1.75;;;7.00;99.90;;;;;;5054765;28;20367;-66
2021/10/23 02:53:25;;;;;;;6.22;1.80;;;7.00;99.90;;;;;;5053149;28;20033;-66
2021/10/23 02:55:51;;;;;;;4.55;1.42;;;7.00;99.90;;;;;;5054437;28;20033;-66
2021/10/23 02:58:17;;;;;;;6.47;1.88;;;7.00;99.90;;;;;;5054412;28;20038;-66
2021/10/23 03:00:43;;;;;;;4.72;1.23;;;7.00;99.90;;;;;;5052985;28;20051;-66
2021/10/23 03:03:08;;;;;;;5.03;1.42;;;7.00;99.90;;;;;;5054259;28;20053;-66
2021/10/23 03:05:34;;;;;;;4.85;1.27;;;7.00;99.90;;;;;;5053223;28;20029;-66
2021/10/23 03:08:00;;;;;;;5.32;1.67;;;7.00;99.90;;;;;;5053990;28;20057;-66
2021/10/23 03:10:26;;;;;;;9.40;1.65;;;7.00;99.90;;;;;;5053008;28;20465;-66
2021/10/23 03:12:51;;;;;;;5.20;1.63;;;7.00;99.90;;;;;;5054157;28;20029;-66
2021/10/23 03:15:17;;;;;;;9.25;1.85;;;7.10;99.90;;;;;;5059281;28;20437;-66
2021/10/23 03:17:42;;;;;;;4.60;1.38;;;7.10;99.90;;;;;;5059971;28;20029;-66
2021/10/23 03:20:08;;;;;;;6.18;1.85;;;7.10;99.90;;;;;;5053933;28;20044;-66
2021/10/23 03:22:34;;;;;;;2.50;1.20;;;7.20;99.90;;;;;;5053192;28;20025;-66
2021/10/23 03:25:00;;;;;;;5.80;1.40;;;7.20;99.90;;;;;;5053872;28;20051;-66
2021/10/23 03:27:25;;;;;;;4.57;1.65;;;7.10;99.90;;;;;;5052851;28;20032;-66
2021/10/23 03:29:51;;;;;;;8.82;2.17;;;7.20;99.90;;;;;;5053753;28;20524;-66
2021/10/23 03:32:17;;;;;;;7.55;1.67;;;7.20;99.90;;;;;;5053961;28;20049;-66
2021/10/23 03:34:43;;;;;;;6.13;1.55;;;7.20;99.90;;;;;;5051845;28;20561;-66
2021/10/23 03:37:09;;;;;;;7.60;1.80;;;7.20;99.90;;;;;;5053652;28;20116;-66
2021/10/23 03:39:34;;;;;;;4.68;1.15;;;7.20;99.90;;;;;;5053133;28;20032;-66
2021/10/23 03:42:00;;;;;;;3.92;1.40;;;7.30;99.90;;;;;;5053462;28;20025;-66
2021/10/23 03:44:26;;;;;;;3.75;1.50;;;7.30;99.90;;;;;;5052399;28;20053;-66
2021/10/23 03:46:51;;;;;;;19.52;2.72;;;7.30;99.90;;;;;;5053520;28;20048;-66
2021/10/23 03:49:17;;;;;;;6.05;1.58;;;7.30;99.90;;;;;;5053217;28;20087;-66
2021/10/23 03:51:43;;;;;;;6.28;1.60;;;7.30;99.90;;;;;;5052697;28;20082;-66
2021/10/23 03:54:09;;;;;;;4.32;1.42;;;7.40;99.90;;;;;;5053002;28;20107;-66
2021/10/23 03:56:35;;;;;;;5.75;1.67;;;7.40;99.90;;;;;;5052281;28;20025;-66
2021/10/23 03:59:01;;;;;;;4.13;1.60;;;7.40;99.90;;;;;;5052793;28;20398;-66
2021/10/23 04:01:26;;;;;;;5.80;1.50;;;7.40;99.90;;;;;;5052166;28;20040;-66
2021/10/23 04:03:53;;;;;;;4.60;1.52;;;7.40;99.90;;;;;;5052388;28;20056;-66
2021/10/23 04:06:19;;;;;;;4.75;1.40;;;7.40;99.90;;;;;;5052889;28;20029;-66
2021/10/23 04:08:45;;;;;;;7.13;2.13;;;7.40;99.90;;;;;;5052144;28;20043;-66
2021/10/23 04:11:11;;;;;;;5.03;1.50;;;7.30;99.90;;;;;;5051641;28;20067;-64
2021/10/23 04:13:36;;;;;;;5.95;1.30;;;7.30;99.90;;;;;;5050657;28;20028;-64
2021/10/23 04:16:02;;;;;;;8.95;2.05;;;7.30;99.90;;;;;;5051064;28;20032;-64
2021/10/23 04:18:28;;;;;;;5.13;1.92;;;7.30;99.90;;;;;;5050615;28;20067;-65
2021/10/23 04:20:54;;;;;;;4.88;1.50;;;7.20;99.90;;;;;;5051166;28;20466;-65
2021/10/23 04:23:20;;;;;;;6.68;2.10;;;7.20;99.90;;;;;;5050947;28;20029;-65
2021/10/23 04:25:45;;;;;;;5.38;1.67;;;7.20;99.90;;;;;;5050150;28;20025;-66
2021/10/23 04:28:11;;;;;;;4.97;1.58;;;7.20;99.90;;;;;;5051278;28;20039;-66
2021/10/23 04:30:37;;;;;;;7.32;1.90;;;7.10;99.90;;;;;;5050211;28;20029;-66
2021/10/23 04:33:03;;;;;;;8.05;1.98;;;7.10;99.90;;;;;;5050997;28;20029;-66
2021/10/23 04:35:29;;;;;;;6.35;1.63;;;7.20;99.90;;;;;;5049951;28;20465;-66
2021/10/23 04:37:54;;;;;;;8.18;1.73;;;7.10;99.90;;;;;;5050977;28;20170;-65
2021/10/23 04:40:20;;;;;;;5.53;1.73;;;7.10;99.90;;;;;;5051172;28;20032;-65
2021/10/23 04:42:46;;;;;;;5.75;1.80;;;7.10;99.90;;;;;;5049466;28;20048;-65
2021/10/23 04:45:11;;;;;;;3.63;1.55;;;7.10;99.90;;;;;;5050956;28;20029;-65
2021/10/23 04:47:37;;;;;;;5.10;1.50;;;7.10;99.90;;;;;;5049954;28;20037;-65
2021/10/23 04:50:04;;;;;;;8.95;2.10;;;7.10;99.90;;;;;;5050773;28;20033;-66
2021/10/23 04:52:29;;;;;;;6.93;1.67;;;7.10;99.90;;;;;;5048645;28;20032;-67
2021/10/23 04:54:55;;;;;;;6.05;1.80;;;7.00;99.90;;;;;;5050608;28;20385;-67
2021/10/23 04:57:21;;;;;;;3.83;2.05;;;7.10;99.90;;;;;;5050336;28;20033;-67
2021/10/23 04:59:46;;;;;;;6.95;2.05;;;7.10;99.90;;;;;;5049789;28;20029;-67
2021/10/23 05:02:12;;;;;;;6.93;1.85;;;7.10;99.90;;;;;;5050691;28;20104;-66
2021/10/23 05:04:37;;;;;;;5.78;1.65;;;7.10;99.90;;;;;;5049727;28;20055;-67
2021/10/23 05:07:03;;;;;;;10.10;1.73;;;7.10;99.90;;;;;;5050967;28;20176;-66
2021/10/23 05:09:29;;;;;;;5.60;1.65;;;7.10;99.90;;;;;;5049695;28;20041;-67
2021/10/23 05:11:54;;;;;;;10.15;1.88;;;7.10;99.90;;;;;;5050843;28;20021;-66
2021/10/23 05:14:21;;;;;;;6.88;2.08;;;7.10;99.90;;;;;;5051507;28;20039;-66
2021/10/23 05:16:46;;;;;;;4.78;1.52;;;7.10;99.90;;;;;;5051159;28;20424;-67
2021/10/23 05:19:13;;;;;;;4.47;1.88;;;7.10;99.90;;;;;;5051973;28;20025;-66
2021/10/23 05:21:39;;;;;;;7.70;2.05;;;7.00;99.90;;;;;;5050450;28;20037;-66
2021/10/23 05:24:04;;;;;;;5.40;1.88;;;7.00;99.90;;;;;;5051846;28;20021;-67
2021/10/23 05:26:30;;;;;;;6.10;1.77;;;7.00;99.90;;;;;;5051042;28;20018;-67
2021/10/23 05:28:56;;;;;;;5.25;2.33;;;7.00;99.90;;;;;;5051786;28;20062;-66
2021/10/23 05:31:22;;;;;;;3.55;1.40;;;7.00;99.90;;;;;;5051705;28;20135;-67
2021/10/23 05:33:47;;;;;;;7.20;2.30;;;7.00;99.90;;;;;;5050982;28;20048;-67
2021/10/23 05:36:13;;;;;;;4.13;1.65;;;7.00;99.90;;;;;;5060380;28;20093;-66
2021/10/23 05:38:39;;;;;;;3.92;1.70;;;7.00;99.90;;;;;;5054338;28;20029;-67
2021/10/23 05:41:04;;;;;;;5.55;1.92;;;7.00;99.90;;;;;;5051809;28;20029;-66
2021/10/23 05:43:30;;;;;;;6.70;2.05;;;7.00;99.90;;;;;;5050686;28;20125;-67
2021/10/23 05:45:56;;;;;;;4.65;1.60;;;7.00;99.90;;;;;;5051592;28;20029;-67
2021/10/23 05:48:21;;;;;;;4.65;1.83;;;7.00;99.90;;;;;;5051702;28;20051;-66
2021/10/23 05:50:47;;;;;;;6.72;1.75;;;7.00;99.90;;;;;;5050593;28;20052;-67
2021/10/23 05:53:13;;;;;;;8.07;2.10;;;7.00;99.90;;;;;;5051253;28;20025;-67
2021/10/23 05:55:39;;;;;;;8.63;2.42;;;7.00;99.90;;;;;;5050163;28;20060;-67
2021/10/23 05:58:05;;;;;;;6.15;1.98;;;7.00;99.90;;;;;;5050915;28;20086;-66
2021/10/23 06:00:34;;;;;;;11.80;2.38;;;7.00;99.90;;;;;;5050132;28;20095;-66
2021/10/23 06:03:01;;;;;;;10.37;1.90;;;7.00;99.90;;;;;;5051349;28;20484;-66
2021/10/23 06:05:27;;;;;;;8.38;2.22;;;7.00;99.90;;;;;;5050674;28;20043;-66
2021/10/23 06:07:52;;;;;;;6.03;2.22;;;7.00;99.90;;;;;;5050908;28;20033;-67
2021/10/23 06:10:18;;;;;;;5.10;1.90;;;7.00;99.90;;;;;;5051256;28;20128;-66
2021/10/23 06:12:45;;;;;;;6.35;1.92;;;7.00;99.90;;;;;;5049131;28;20879;-66
2021/10/23 06:15:11;;;;;;;9.50;2.13;;;7.00;99.90;;;;;;5050827;28;20513;-66
2021/10/23 06:17:37;;;;;;;4.03;1.70;;;7.00;99.90;;;;;;5049107;28;20466;-66
2021/10/23 06:20:04;;;;;;;4.43;1.95;;;7.10;99.90;;;;;;5051205;28;20078;-67
2021/10/23 06:22:30;;;;;;;5.97;2.35;;;7.10;99.90;;;;;;5050030;28;20489;-67
2021/10/23 06:24:56;;;;;;;4.90;1.88;;;7.20;99.90;;;;;;5050963;28;20451;-66
2021/10/23 06:27:21;;;;;;;6.03;2.00;;;7.20;99.90;;;;;;5050961;28;20048;-66
2021/10/23 06:29:47;;;;;;;7.90;2.10;;;7.30;99.90;;;;;;5050259;28;20598;-67
2021/10/23 06:32:13;;;;;;;18.38;3.63;;;7.30;99.90;;;;;;5050945;28;20389;-67
2021/10/23 06:34:41;;;;;;;6.13;2.08;;;7.40;99.90;;;;;;5049758;28;20025;-67
2021/10/23 06:37:08;;;;;;;6.50;2.20;;;7.40;99.90;;;;;;5050863;28;20045;-67
2021/10/23 06:39:34;;;;;;;4.82;1.80;;;7.40;99.90;;;;;;5050159;28;20122;-67
2021/10/23 06:41:59;;;;;;;6.57;2.03;;;7.50;99.90;;;;;;5051178;28;20410;-66
2021/10/23 06:44:25;;;;;;;8.00;2.70;;;7.50;99.90;;;;;;5050465;28;20056;-67
2021/10/23 06:46:51;;;;;;;5.50;1.92;;;7.50;99.90;;;;;;5053531;28;20462;-66
2021/10/23 06:49:16;;;;;;;4.85;1.88;;;7.60;99.90;;;;;;5053859;28;20079;-67
2021/10/23 06:51:42;;;;;;;8.13;2.65;;;7.70;99.90;;;;;;5053919;28;20071;-67
2021/10/23 06:54:08;;;;;;;6.65;2.10;;;7.70;99.90;;;;;;5054047;28;20041;-66
2021/10/23 06:56:33;;;;;;;4.93;2.10;;;7.80;99.90;;;;;;5053582;28;20025;-66
2021/10/23 06:58:59;;;;;;;7.07;2.10;;;7.80;99.90;;;;;;5054235;28;20402;-66
2021/10/23 07:01:25;;;;;;;5.20;1.85;;;7.90;99.90;;;;;;5053599;28;20047;-67
2021/10/23 07:03:52;;;;;;;6.60;2.45;;;7.90;99.90;;;;;;5053259;28;20087;-67
2021/10/23 07:06:18;;;;;;;6.10;2.03;;;8.00;99.90;;;;;;5054198;28;20025;-67
2021/10/23 07:08:43;;;;;;;9.43;2.42;;;8.00;99.90;;;;;;5053001;28;20547;-68
2021/10/23 07:11:09;;;;;;;5.07;1.75;;;8.00;99.90;;;;;;5054032;28;20530;-68
2021/10/23 07:13:35;;;;;;;4.50;1.80;;;8.00;99.90;;;;;;5052868;28;20370;-68
2021/10/23 07:16:01;;;;;;;6.28;2.25;;;8.10;99.90;;;;;;5054101;28;20363;-68
2021/10/23 07:18:27;;;;;;;6.43;2.38;;;8.10;99.90;;;;;;5053222;28;20036;-67
2021/10/23 07:20:53;;;;;;;6.68;2.13;;;8.10;99.90;;;;;;5053406;28;20051;-67
2021/10/23 07:23:18;;;;;;;8.50;2.70;;;8.20;99.90;;;;;;5053526;28;20462;-67
2021/10/23 07:25:46;;;;;;;9.77;2.42;;;8.30;99.90;;;;;;5053563;28;20029;-67
2021/10/23 07:28:12;;;;;;;7.82;2.65;;;8.30;99.90;;;;;;5053711;28;20455;-67
2021/10/23 07:30:38;;;;;;;8.32;2.10;;;8.40;99.90;;;;;;5052848;28;20029;-67
2021/10/23 07:33:03;;;;;;;5.45;2.22;;;8.30;99.90;;;;;;5053838;28;20029;-67
2021/10/23 07:35:29;;;;;;;6.13;2.40;;;8.40;99.90;;;;;;5052732;28;20036;-67
2021/10/23 07:37:55;;;;;;;4.85;2.38;;;8.40;99.90;;;;;;5053464;28;20040;-67
2021/10/23 07:40:20;;;;;;;5.03;2.35;;;8.30;99.90;;;;;;5052257;28;20035;-67
2021/10/23 07:42:46;;;;;;;8.23;2.38;;;8.30;99.90;;;;;;5051484;28;20071;-67
2021/10/23 07:45:13;;;;;;;9.30;2.58;;;8.30;99.90;;;;;;5053196;28;20071;-67
2021/10/23 07:47:40;;;;;;;7.80;2.50;;;8.30;99.90;;;;;;5052309;28;20051;-67
2021/10/23 07:50:08;;;;;;;5.63;2.22;;;8.20;99.90;;;;;;5053482;28;20056;-67
2021/10/23 07:52:35;;;;;;;10.70;1.90;;;8.20;99.90;;;;;;5052380;28;20096;-67
2021/10/23 07:55:03;;;;;;;9.40;2.55;;;8.20;99.90;;;;;;5052995;28;20041;-67
2021/10/23 07:57:29;;;;;;;11.48;2.33;;;8.20;99.90;;;;;;5051060;28;20056;-67
2021/10/23 07:59:54;;;;;;;7.53;3.30;;;8.20;99.90;;;;;;5044531;28;20056;-67
2021/10/23 08:02:20;;;;;;;15.35;3.13;;;8.30;99.90;;;;;;5052918;28;20033;-67
2021/10/23 08:04:46;;;;;;;10.43;2.78;;;8.40;99.90;;;;;;5052009;28;20028;-66
2021/10/23 08:07:11;;;;;;;6.00;2.55;;;8.50;99.90;;;;;;5052585;28;20382;-67
2021/10/23 08:09:38;;;;;;;9.05;2.97;;;8.60;99.90;;;;;;5063653;28;20044;-67
2021/10/23 08:12:05;;;;;;;6.93;2.78;;;8.70;99.90;;;;;;5072651;28;20033;-66
2021/10/23 08:14:35;;;;;;;8.40;3.13;;;8.80;99.90;;;;;;5035198;28;20428;-67
2021/10/23 08:17:01;;;;;;;7.25;2.45;;;9.00;99.90;;;;;;5033773;28;20474;-66
2021/10/23 08:19:27;;;;;;;10.32;3.30;;;9.20;99.90;;;;;;5034680;28;20033;-67
2021/10/23 08:21:53;;;;;;;9.63;2.88;;;9.30;99.90;;;;;;5052244;28;20035;-66
2021/10/23 08:24:18;;;;;;;6.13;2.30;;;9.30;99.90;;;;;;5033749;28;20112;-66
2021/10/23 08:26:45;;;;;;;6.43;2.58;;;9.20;99.90;;;;;;5031821;28;20104;-68
2021/10/23 08:29:12;;;;;;;7.45;2.50;;;9.10;99.90;;;;;;5056131;28;20037;-68
2021/10/23 08:31:39;;;;;;;9.05;3.05;;;9.10;99.90;;;;;;5047554;28;20485;-66
2021/10/23 08:34:05;;;;;;;8.20;2.67;;;9.00;99.90;;;;;;5032115;28;20381;-66
2021/10/23 08:36:31;;;;;;;10.30;3.08;;;9.00;99.90;;;;;;5043603;28;20080;-66
2021/10/23 08:38:57;;;;;;;6.82;2.72;;;9.00;99.90;;;;;;5051281;28;20375;-72
2021/10/23 08:41:24;;;;;;;9.20;2.75;;;9.00;99.90;;;;;;5051937;28;20024;-67
2021/10/23 08:43:51;;;;;;;7.47;2.67;;;9.10;99.90;;;;;;5050039;28;20677;-67
2021/10/23 08:46:27;;;;;;;3.55;2.08;;;9.10;99.90;;;;;;5052025;28;20029;-77
2021/10/23 08:48:54;;;;;;;8.80;2.38;;;9.30;99.90;;;;;;5051044;28;20053;-67
2021/10/23 08:51:21;;;;;;;7.05;1.92;;;9.40;99.90;;;;;;5051196;28;20025;-69
2021/10/23 08:53:48;;;;;;;6.05;2.22;;;9.50;99.90;;;;;;5044739;28;20032;-68
2021/10/23 08:56:15;;;;;;;5.00;1.95;;;9.70;99.90;;;;;;5052035;28;20462;-68
2021/10/23 08:58:42;;;;;;;4.85;1.92;;;9.70;99.90;;;;;;5058166;28;20038;-76
2021/10/23 09:01:10;;;;;;;7.22;2.05;;;9.80;99.90;;;;;;5064299;28;20025;-72
2021/10/23 09:03:38;;;;;;;5.60;2.03;;;9.90;99.90;;;;;;5050767;28;20111;-67
2021/10/23 09:06:03;;;;;;;6.95;1.80;;;9.90;99.90;;;;;;5051606;28;20029;-68
2021/10/23 09:08:29;;;;;;;6.95;2.00;;;9.90;99.90;;;;;;5050654;28;20040;-67
2021/10/23 09:10:57;;;;;;;6.70;1.92;;;9.80;99.90;;;;;;5050988;28;20063;-69
2021/10/23 09:13:31;;;;;;;7.93;2.10;;;9.70;99.90;;;;;;5051251;28;20029;-69
2021/10/23 09:15:57;;;;;;;4.45;1.70;;;9.70;99.90;;;;;;5051234;28;20408;-70
2021/10/23 09:18:43;;;;;;;4.18;1.60;;;9.70;99.90;;;;;;5050493;28;20029;-67
2021/10/23 09:21:20;;;;;;;4.97;1.60;;;9.60;99.90;;;;;;5052441;28;20035;-67
2021/10/23 09:23:50;;;;;;;7.28;1.90;;;9.60;99.90;;;;;;5051702;28;20467;-71
2021/10/23 09:26:34;;;;;;;8.40;3.17;;;9.60;99.90;;;;;;5049057;28;20035;-68
2021/10/23 09:29:16;;;;;;;9.20;2.13;;;9.70;99.90;;;;;;5061590;28;20445;-67
2021/10/23 09:31:47;;;;;;;10.70;2.75;;;9.70;99.90;;;;;;5052960;28;20037;-67
2021/10/23 09:34:15;;;;;;;9.35;2.13;;;9.70;99.90;;;;;;5051468;28;20025;-66
2021/10/23 09:36:53;;;;;;;5.15;1.95;;;9.70;99.90;;;;;;5051154;28;20025;-68
2021/10/23 09:39:29;;;;;;;5.88;2.05;;;9.80;99.90;;;;;;5051621;28;20033;-71
2021/10/23 09:42:21;;;;;;;8.45;2.53;;;9.80;99.90;;;;;;5050413;28;20044;-68
2021/10/23 09:45:01;;;;;;;8.80;2.55;;;9.80;99.90;;;;;;5049644;28;20160;-69
2021/10/23 09:47:43;;;;;;;7.65;2.50;;;9.90;99.90;;;;;;5051680;28;20082;-68
2021/10/23 09:50:17;;;;;;;5.75;2.13;;;9.90;99.90;;;;;;5051576;28;20069;-67
2021/10/23 09:53:03;;;;;;;10.25;2.50;;;10.10;99.90;;;;;;5050100;28;20025;-69
2021/10/23 09:55:53;;;;;;;7.95;2.47;;;10.20;99.90;;;;;;5050414;28;20033;-68
2021/10/23 09:58:24;;;;;;;8.73;3.13;;;10.30;99.90;;;;;;5051054;28;20060;-68
2021/10/23 10:00:54;;;;;;;5.55;2.22;;;10.50;99.90;;;;;;5048814;28;20029;-69
2021/10/23 10:03:28;;;;;;;3.88;2.00;;;10.80;99.90;;;;;;5051336;28;20525;-68
2021/10/23 10:05:55;;;;;;;5.80;2.25;;;11.10;99.90;;;;;;5050610;28;20637;-67
2021/10/23 10:08:22;;;;;;;5.53;2.40;;;11.50;99.90;;;;;;5051045;28;20045;-66
2021/10/23 10:10:50;;;;;;;7.55;2.95;;;11.80;99.90;;;;;;5050106;28;20025;-68
2021/10/23 10:13:22;;;;;;;6.57;2.60;;;12.00;99.90;;;;;;5050707;28;20473;-68
2021/10/23 10:15:52;;;;;;;4.53;1.90;;;12.10;99.90;;;;;;5050415;28;20064;-68
2021/10/23 10:18:19;;;;;;;4.80;1.58;;;12.20;99.60;;;;;;5051351;28;20127;-68
2021/10/23 10:20:53;;;;;;;3.22;1.52;;;12.30;98.50;;;;;;5051570;28;20033;-68
2021/10/23 10:23:20;;;;;;;2.80;1.30;;;12.30;97.40;;;;;;5055007;28;20029;-66
2021/10/23 10:26:25;;;;;;;5.05;1.80;;;12.40;96.60;;;;;;5054003;28;20044;-68
2021/10/23 10:29:10;;;;;;;7.15;2.30;;;12.50;95.80;;;;;;5053556;28;20055;-68
2021/10/23 10:42:57;;;;;;;10.57;3.13;;;11.90;98.80;;;;;;5052859;28;20401;-68
2021/10/23 10:45:41;;;;;;;9.95;3.33;;;11.70;99.90;;;;;;5054440;28;20043;-68
2021/10/23 10:48:07;;;;;;;13.93;3.50;;;11.60;99.90;;;;;;5054379;28;20055;-68
2021/10/23 10:50:44;;;;;;;11.35;3.45;;;11.60;99.90;;;;;;5054683;28;20021;-69
2021/10/23 10:53:23;;;;;;;7.32;3.05;;;11.70;99.90;;;;;;5054419;28;20023;-69
2021/10/23 10:55:54;;;;;;;9.57;3.10;;;11.80;99.90;;;;;;5053250;28;20067;-68
2021/10/23 10:58:38;;;;;;;7.07;3.13;;;12.00;99.90;;;;;;5054107;28;20123;-68
2021/10/23 11:01:13;;;;;;;7.63;2.80;;;12.10;99.90;;;;;;5054558;28;20033;-69
2021/10/23 11:03:43;;;;;;;6.22;2.63;;;12.20;99.90;;;;;;5053062;28;20029;-68
2021/10/23 11:06:31;;;;;;;6.72;2.55;;;12.30;99.20;;;;;;5054272;28;20029;-68
2021/10/23 11:11:50;;;;;;;8.23;2.70;;;12.30;98.90;;;;;;5053675;28;20044;-68
2021/10/23 11:19:23;;;;;;;5.47;2.42;;;12.40;97.60;;;;;;5054186;28;20135;-68
2021/10/23 11:22:12;;;;;;;8.07;2.47;;;12.40;97.90;;;;;;5052925;28;20060;-69
2021/10/23 11:24:49;;;;;;;6.40;2.20;;;12.50;96.60;;;;;;5053558;28;20028;-68
2021/10/23 11:27:39;;;;;;;5.95;1.80;;;12.60;95.40;;;;;;5055330;28;20427;-68
2021/10/23 11:30:14;;;;;;;;;;;12.70;95.10;;;;;;5061209;28;20033;-68
2021/10/23 11:32:52;;;;;;;10.38;2.67;;;12.90;94.40;;;;;;5052974;28;19905;-68
2021/10/23 11:35:18;;;;;;;9.73;2.78;;;13.00;93.10;;;;;;5054284;28;20025;-68
2021/10/23 11:37:51;;;;;;;5.35;2.38;;;13.00;92.60;;;;;;5052559;28;20065;-66
2021/10/23 11:40:16;;;;;;;5.03;1.95;;;13.00;91.80;;;;;;5053724;28;20025;-68
2021/10/23 11:42:47;;;;;;;6.25;2.47;;;13.10;90.60;;;;;;5051963;28;20087;-66
2021/10/23 11:45:23;;;;;;;9.05;2.10;;;13.20;90.00;;;;;;5053537;28;20029;-66
2021/10/23 11:47:57;;;;;;;4.22;1.83;;;13.30;89.70;;;;;;5052153;28;20382;-66
2021/10/23 11:50:42;;;;;;;6.28;2.25;;;13.40;88.50;;;;;;5053497;28;20044;-66
2021/10/23 11:53:29;;;;;;;5.45;1.48;;;13.60;88.10;;;;;;5052941;28;20052;-67
2021/10/23 11:56:06;;;;;;;5.55;1.98;;;13.90;87.00;;;;;;5052423;28;20033;-67
2021/10/23 11:58:38;;;;;;;5.85;2.22;;;14.20;84.60;;;;;;5053214;28;20037;-66
2021/10/23 12:01:07;;;;;;;4.05;2.10;;;14.40;83.30;;;;;;5052784;28;20108;-66
2021/10/23 12:03:49;;;;;;;5.40;2.73;;;14.50;83.20;;;;;;5052618;28;20029;-68
2021/10/23 12:06:49;;;;;;;4.60;1.85;;;14.80;80.90;;;;;;5053312;28;20736;-67
2021/10/23 12:09:20;;;;;;;6.47;2.30;;;14.80;80.00;;;;;;5040868;28;20041;-67
2021/10/23 12:12:05;;;;;;;3.97;1.83;;;15.00;79.60;;;;;;5028542;28;20475;-66
2021/10/23 12:14:31;;;;;;;3.45;1.33;;;15.20;77.40;;;;;;5051698;28;20115;-67
2021/10/23 12:16:58;;;;;;;7.72;2.15;;;16.10;69.70;;;;;;5052999;28;20021;-66
2021/10/23 12:19:37;;;;;;;4.70;1.85;;;16.30;67.40;;;;;;5052181;28;20025;-66
2021/10/23 12:22:14;;;;;;;6.07;1.90;;;16.60;66.90;;;;;;5050060;28;20074;-66
2021/10/23 12:24:47;;;;;;;3.15;1.50;;;16.40;65.60;;;;;;5052241;28;20466;-66
2021/10/23 12:27:27;;;;;;;7.60;1.65;;;15.70;67.40;;;;;;5052376;28;20029;-67
2021/10/23 12:30:02;;;;;;;6.63;1.80;;;15.30;67.00;;;;;;5051584;28;20037;-66
2021/10/23 12:32:46;;;;;;;2.80;1.20;;;14.80;67.70;;;;;;5052501;28;20028;-66
2021/10/23 12:35:20;;;;;;;5.13;1.63;;;14.40;69.80;;;;;;5032717;28;20038;-66
2021/10/23 12:37:51;;;;;;;2.65;1.42;;;14.10;70.50;;;;;;5050283;28;20044;-66
2021/10/23 12:40:20;;;;;;;4.00;1.80;;;14.00;69.90;;;;;;5052208;28;20029;-67
2021/10/23 12:42:49;;;;;;;7.60;2.17;;;13.80;69.60;;;;;;5058239;28;20446;-67
2021/10/23 12:45:17;;;;;;;5.65;1.83;;;13.70;70.80;;;;;;5051852;28;20469;-67
2021/10/23 12:47:44;;;;;;;3.53;1.83;;;13.50;71.80;;;;;;5051151;28;20044;-67
2021/10/23 12:50:10;;;;;;;7.10;1.83;;;13.40;73.50;;;;;;5051491;28;20029;-67
2021/10/23 12:52:37;;;;;;;4.50;1.83;;;13.40;72.10;;;;;;5051780;28;20470;-66
2021/10/23 12:55:05;;;;;;;6.35;1.77;;;13.30;72.10;;;;;;5051748;28;20037;-67
2021/10/23 12:57:31;;;;;;;5.60;2.20;;;13.30;72.10;;;;;;5052386;28;20040;-68
2021/10/23 12:59:58;;;;;;;4.05;1.50;;;13.30;71.70;;;;;;5051826;28;20032;-67
2021/10/23 13:02:24;;;;;;;4.68;1.80;;;13.20;73.40;;;;;;5052022;28;20040;-67
2021/10/23 13:04:49;;;;;;;4.47;1.60;;;13.10;74.30;;;;;;5050581;28;20037;-67
2021/10/23 13:07:17;;;;;;;6.78;2.03;;;13.00;75.00;;;;;;5051898;28;20035;-67
2021/10/23 13:09:44;;;;;;;2.85;1.80;;;13.00;74.90;;;;;;5050753;28;20035;-67
2021/10/23 13:12:10;;;;;;;6.53;1.90;;;13.10;75.80;;;;;;5051406;28;20033;-67
2021/10/23 13:14:36;;;;;;;3.72;1.55;;;13.10;75.20;;;;;;5051781;28;20466;-67
2021/10/23 13:17:01;;;;;;;4.45;1.73;;;13.10;75.30;;;;;;5050650;28;20053;-67
2021/10/23 13:19:27;;;;;;;4.95;1.88;;;13.20;74.60;;;;;;5051610;28;20346;-67